createdAt,value
2022-09-01T00:01:50.106Z,18.55
2022-09-01T00:04:20.812Z,18.56
2022-09-01T00:06:49.102Z,18.55
2022-09-01T00:09:19.863Z,18.55
2022-09-01T00:11:50.594Z,18.57
2022-09-01T00:14:29.615Z,18.56
2022-09-01T00:17:02.457Z,18.55
2022-09-01T00:19:29.922Z,18.56
2022-09-01T00:21:57.296Z,18.53
2022-09-01T00:24:24.776Z,18.53
2022-09-01T00:26:52.201Z,18.51
2022-09-01T00:29:19.340Z,18.51
2022-09-01T00:31:46.494Z,18.50
2022-09-01T00:34:16.003Z,18.51
2022-09-01T00:36:44.063Z,18.49
2022-09-01T00:39:11.367Z,18.49
2022-09-01T00:41:40.145Z,18.47
2022-09-01T00:44:11.657Z,18.47
2022-09-01T00:46:49.844Z,18.45
2022-09-01T00:49:31.666Z,18.42
2022-09-01T00:52:30.139Z,18.41
2022-09-01T00:55:00.062Z,18.40
2022-09-01T00:57:27.721Z,18.40
2022-09-01T01:00:04.797Z,18.38
2022-09-01T01:02:31.943Z,18.34
2022-09-01T01:04:59.651Z,18.32
2022-09-01T01:07:29.211Z,18.30
2022-09-01T01:09:56.771Z,18.29
2022-09-01T01:12:23.686Z,18.29
2022-09-01T01:14:52.137Z,18.28
2022-09-01T01:17:21.612Z,18.28
2022-09-01T01:19:54.562Z,18.29
2022-09-01T01:22:55.384Z,18.27
2022-09-01T01:25:22.392Z,18.26
2022-09-01T01:27:50.375Z,18.24
2022-09-01T01:30:18.396Z,18.24
2022-09-01T01:32:48.292Z,18.24
2022-09-01T01:35:17.406Z,18.23
2022-09-01T01:37:46.408Z,18.22
2022-09-01T01:40:17.805Z,18.19
2022-09-01T01:42:46.283Z,18.13
2022-09-01T01:45:15.084Z,18.11
2022-09-01T01:47:42.208Z,18.06
2022-09-01T01:50:09.745Z,18.05
2022-09-01T01:52:37.308Z,17.90
2022-09-01T01:55:05.399Z,17.95
2022-09-01T01:57:32.606Z,17.93
2022-09-01T01:59:59.421Z,17.91
2022-09-01T02:02:26.605Z,17.85
2022-09-01T02:04:54.445Z,17.79
2022-09-01T02:07:21.359Z,17.79
2022-09-01T02:09:48.888Z,17.76
2022-09-01T02:12:15.972Z,17.73
2022-09-01T02:14:42.997Z,17.71
2022-09-01T02:17:09.923Z,17.69
2022-09-01T02:19:36.941Z,17.68
2022-09-01T02:22:04.295Z,17.66
2022-09-01T02:24:31.169Z,17.64
2022-09-01T02:26:58.496Z,17.64
2022-09-01T02:29:25.677Z,17.61
2022-09-01T02:31:53.932Z,17.60
2022-09-01T02:34:22.758Z,17.58
2022-09-01T02:36:53.161Z,17.56
2022-09-01T02:39:30.731Z,17.52
2022-09-01T02:41:57.544Z,17.52
2022-09-01T02:44:28.466Z,17.50
2022-09-01T02:46:57.020Z,17.48
2022-09-01T02:49:25.849Z,17.47
2022-09-01T02:51:55.311Z,17.46
2022-09-01T02:54:22.936Z,17.44
2022-09-01T02:56:50.105Z,17.39
2022-09-01T02:59:19.395Z,17.36
2022-09-01T03:01:46.449Z,17.33
2022-09-01T03:04:14.564Z,17.30
2022-09-01T03:06:41.900Z,17.27
2022-09-01T03:09:12.736Z,17.24
2022-09-01T03:11:42.678Z,17.23
2022-09-01T03:14:09.827Z,17.22
2022-09-01T03:16:37.638Z,17.21
2022-09-01T03:19:05.994Z,17.22
2022-09-01T03:21:33.862Z,17.24
2022-09-01T03:24:00.740Z,17.25
2022-09-01T03:26:28.374Z,17.26
2022-09-01T03:28:55.360Z,17.25
2022-09-01T03:31:22.820Z,17.25
2022-09-01T03:33:51.341Z,17.23
2022-09-01T03:36:27.718Z,17.22
2022-09-01T03:38:55.580Z,17.19
2022-09-01T03:41:26.460Z,17.16
2022-09-01T03:43:53.365Z,17.13
2022-09-01T03:46:21.123Z,17.11
2022-09-01T03:48:54.203Z,17.07
2022-09-01T03:51:23.084Z,17.03
2022-09-01T03:53:52.373Z,16.98
2022-09-01T03:56:19.240Z,16.95
2022-09-01T03:58:47.481Z,16.91
2022-09-01T04:01:16.925Z,16.88
2022-09-01T04:03:45.704Z,16.82
2022-09-01T04:06:12.527Z,16.79
2022-09-01T04:08:39.545Z,16.76
2022-09-01T04:11:15.679Z,16.71
2022-09-01T04:13:43.212Z,16.68
2022-09-01T04:16:21.093Z,16.67
2022-09-01T04:18:48.384Z,16.66
2022-09-01T04:21:15.382Z,16.64
2022-09-01T04:23:42.394Z,16.63
2022-09-01T04:26:12.209Z,16.62
2022-09-01T04:28:50.369Z,16.59
2022-09-01T04:31:20.232Z,16.59
2022-09-01T04:33:52.950Z,16.57
2022-09-01T04:36:24.633Z,16.55
2022-09-01T04:38:56.907Z,16.55
2022-09-01T04:41:31.842Z,16.53
2022-09-01T04:44:02.344Z,16.53
2022-09-01T04:46:29.290Z,16.53
2022-09-01T04:48:56.854Z,16.53
2022-09-01T04:51:24.721Z,16.52
2022-09-01T04:53:52.827Z,16.54
2022-09-01T04:56:20.798Z,16.57
2022-09-01T04:58:59.019Z,16.58
2022-09-01T05:01:27.242Z,16.61
2022-09-01T05:03:54.265Z,16.63
2022-09-01T05:06:44.011Z,16.69
2022-09-01T05:09:13.028Z,16.74
2022-09-01T05:12:00.227Z,16.78
2022-09-01T05:14:29.566Z,16.83
2022-09-01T05:16:58.646Z,16.90
2022-09-01T05:19:27.791Z,16.94
2022-09-01T05:21:56.235Z,16.98
2022-09-01T05:24:23.131Z,17.03
2022-09-01T05:26:50.001Z,17.08
2022-09-01T05:29:17.180Z,17.12
2022-09-01T05:31:50.245Z,17.16
2022-09-01T05:34:19.073Z,17.18
2022-09-01T05:36:47.321Z,17.21
2022-09-01T05:39:14.172Z,17.27
2022-09-01T05:41:41.239Z,17.32
2022-09-01T05:44:09.830Z,17.37
2022-09-01T05:46:38.449Z,17.41
2022-09-01T05:49:07.184Z,17.48
2022-09-01T05:51:46.415Z,17.53
2022-09-01T05:54:22.143Z,17.58
2022-09-01T05:56:50.159Z,17.64
2022-09-01T05:59:23.747Z,17.69
2022-09-01T06:01:54.528Z,17.73
2022-09-01T06:04:23.419Z,17.77
2022-09-01T06:07:10.209Z,17.82
2022-09-01T06:09:48.126Z,17.87
2022-09-01T06:12:18.802Z,17.90
2022-09-01T06:14:47.904Z,17.95
2022-09-01T06:17:19.473Z,18.01
2022-09-01T06:19:46.458Z,18.06
2022-09-01T06:22:13.663Z,18.11
2022-09-01T06:24:40.892Z,18.12
2022-09-01T06:27:10.947Z,18.16
2022-09-01T06:29:38.717Z,18.17
2022-09-01T06:32:09.942Z,18.19
2022-09-01T06:34:42.819Z,18.23
2022-09-01T06:37:11.603Z,18.29
2022-09-01T06:39:38.437Z,18.33
2022-09-01T06:42:06.374Z,18.40
2022-09-01T06:44:45.208Z,18.43
2022-09-01T06:47:12.075Z,18.48
2022-09-01T06:49:39.012Z,18.57
2022-09-01T06:52:10.437Z,18.63
2022-09-01T06:54:37.482Z,18.70
2022-09-01T06:59:52.661Z,18.76
2022-09-01T07:02:22.276Z,18.94
2022-09-01T07:08:16.400Z,19.08
2022-09-01T07:16:41.844Z,19.23
2022-09-01T07:19:19.525Z,19.26
2022-09-01T07:22:08.673Z,19.30
2022-09-01T07:24:39.489Z,19.29
2022-09-01T07:27:36.034Z,19.34
2022-09-01T07:30:08.483Z,19.34
2022-09-01T07:32:47.599Z,19.36
2022-09-01T07:35:19.156Z,19.39
2022-09-01T07:43:50.506Z,19.37
2022-09-01T07:46:37.081Z,19.36
2022-09-01T07:51:53.365Z,19.37
2022-09-01T07:54:20.897Z,19.38
2022-09-01T07:56:48.722Z,19.38
2022-09-01T07:59:16.542Z,19.40
2022-09-01T08:01:50.673Z,19.38
2022-09-01T08:04:18.190Z,19.36
2022-09-01T08:06:45.034Z,19.32
2022-09-01T08:09:25.264Z,19.33
2022-09-01T08:12:02.252Z,19.36
2022-09-01T08:14:35.467Z,19.42
2022-09-01T08:17:16.841Z,19.50
2022-09-01T08:19:45.228Z,19.58
2022-09-01T08:22:18.623Z,19.69
2022-09-01T08:24:53.806Z,19.82
2022-09-01T08:27:21.523Z,19.97
2022-09-01T08:29:48.763Z,20.09
2022-09-01T08:32:15.768Z,20.14
2022-09-01T08:34:42.658Z,20.24
2022-09-01T08:37:09.512Z,20.27
2022-09-01T08:39:37.426Z,20.29
2022-09-01T08:42:39.307Z,20.36
2022-09-01T08:45:06.194Z,20.42
2022-09-01T08:47:49.210Z,20.47
2022-09-01T08:50:22.080Z,20.58
2022-09-01T08:53:26.747Z,20.71
2022-09-01T08:55:58.645Z,20.79
2022-09-01T08:58:28.385Z,20.89
2022-09-01T09:01:41.713Z,20.94
2022-09-01T09:04:37.908Z,20.97
2022-09-01T09:07:15.018Z,21.07
2022-09-01T09:09:53.815Z,21.17
2022-09-01T09:12:24.258Z,21.23
2022-09-01T09:15:21.587Z,21.26
2022-09-01T09:18:00.482Z,21.19
2022-09-01T09:20:28.805Z,21.23
2022-09-01T09:22:56.269Z,21.27
2022-09-01T09:25:22.967Z,21.13
2022-09-01T09:28:00.523Z,21.08
2022-09-01T09:30:28.679Z,20.98
2022-09-01T09:33:30.836Z,20.91
2022-09-01T09:35:47.446Z,20.99
2022-09-01T09:38:14.188Z,20.93
2022-09-01T09:41:16.041Z,20.95
2022-09-01T09:43:58.652Z,20.83
2022-09-01T09:46:34.466Z,20.76
2022-09-01T09:49:09.652Z,20.72
2022-09-01T09:51:38.019Z,20.70
2022-09-01T09:54:18.415Z,20.73
2022-09-01T09:56:46.751Z,20.82
2022-09-01T09:59:53.689Z,20.90
2022-09-01T10:02:31.357Z,21.07
2022-09-01T10:04:59.502Z,21.26
2022-09-01T10:07:28.417Z,21.34
2022-09-01T10:09:58.007Z,21.42
2022-09-01T10:12:26.016Z,21.45
2022-09-01T10:15:04.723Z,21.42
2022-09-01T10:17:43.278Z,21.40
2022-09-01T10:20:20.179Z,21.29
2022-09-01T10:22:50.633Z,21.18
2022-09-01T10:25:24.813Z,21.27
2022-09-01T10:27:58.386Z,21.40
2022-09-01T10:30:26.263Z,21.52
2022-09-01T10:33:07.970Z,21.59
2022-09-01T10:35:48.839Z,21.58
2022-09-01T10:38:28.107Z,21.62
2022-09-01T10:40:57.168Z,21.59
2022-09-01T10:43:36.257Z,21.57
2022-09-01T10:46:15.643Z,21.59
2022-09-01T10:48:51.836Z,21.64
2022-09-01T10:51:28.860Z,21.72
2022-09-01T10:54:02.676Z,21.84
2022-09-01T10:56:44.688Z,21.95
2022-09-01T10:59:32.737Z,22.04
2022-09-01T11:02:27.706Z,22.13
2022-09-01T11:05:17.122Z,22.27
2022-09-01T11:08:01.457Z,22.43
2022-09-01T11:10:42.483Z,22.54
2022-09-01T11:13:34.039Z,22.62
2022-09-01T11:19:29.397Z,22.86
2022-09-01T11:22:26.439Z,22.97
2022-09-01T11:25:38.709Z,23.05
2022-09-01T11:28:23.628Z,23.12
2022-09-01T11:30:56.355Z,23.22
2022-09-01T11:33:32.322Z,23.27
2022-09-01T11:36:22.425Z,23.40
2022-09-01T11:39:12.448Z,23.60
2022-09-01T11:41:40.135Z,23.70
2022-09-01T11:44:15.342Z,23.81
2022-09-01T11:46:43.118Z,23.91
2022-09-01T11:49:43.389Z,23.99
2022-09-01T11:52:16.325Z,24.17
2022-09-01T11:54:44.436Z,24.31
2022-09-01T11:57:22.663Z,24.41
2022-09-01T11:59:50.017Z,24.51
2022-09-01T12:02:26.220Z,24.59
2022-09-01T12:04:54.812Z,24.62
2022-09-01T12:07:39.904Z,24.65
2022-09-01T12:10:19.817Z,24.56
2022-09-01T12:12:47.252Z,24.47
2022-09-01T12:15:24.247Z,24.36
2022-09-01T12:17:52.777Z,24.31
2022-09-01T12:20:28.690Z,24.25
2022-09-01T12:22:56.481Z,24.27
2022-09-01T12:25:34.003Z,24.27
2022-09-01T12:28:03.802Z,24.24
2022-09-01T12:30:32.066Z,24.23
2022-09-01T12:35:47.074Z,24.15
2022-09-01T12:38:19.546Z,24.18
2022-09-01T12:40:57.959Z,24.24
2022-09-01T12:43:40.213Z,24.39
2022-09-01T12:46:08.595Z,24.48
2022-09-01T12:48:41.476Z,24.56
2022-09-01T12:51:26.576Z,24.68
2022-09-01T12:54:04.541Z,24.72
2022-09-01T12:56:37.251Z,24.76
2022-09-01T12:59:25.112Z,24.78
2022-09-01T13:02:33.796Z,24.82
2022-09-01T13:05:36.161Z,24.84
2022-09-01T13:08:09.865Z,24.95
2022-09-01T13:10:43.494Z,24.97
2022-09-01T13:13:11.973Z,25.01
2022-09-01T13:15:44.809Z,25.04
2022-09-01T13:18:11.730Z,25.06
2022-09-01T13:20:38.669Z,25.04
2022-09-01T13:23:05.779Z,25.12
2022-09-01T13:25:32.605Z,25.27
2022-09-01T13:27:59.622Z,25.35
2022-09-01T13:30:26.448Z,25.55
2022-09-01T13:35:40.189Z,25.61
2022-09-01T13:38:07.114Z,25.66
2022-09-01T13:40:34.541Z,25.62
2022-09-01T13:43:01.840Z,25.51
2022-09-01T13:45:33.886Z,25.35
2022-09-01T13:48:20.310Z,25.26
2022-09-01T13:53:39.463Z,25.04
2022-09-01T13:56:06.771Z,24.99
2022-09-01T13:58:33.629Z,24.90
2022-09-01T14:01:08.871Z,24.80
2022-09-01T14:03:40.038Z,24.76
2022-09-01T14:06:11.493Z,24.71
2022-09-01T14:08:41.526Z,24.69
2022-09-01T14:11:08.576Z,24.69
2022-09-01T14:13:35.292Z,24.72
2022-09-01T14:16:02.561Z,24.76
2022-09-01T14:18:29.717Z,24.79
2022-09-01T14:20:56.544Z,24.83
2022-09-01T14:23:25.629Z,24.85
2022-09-01T14:25:52.595Z,24.83
2022-09-01T14:28:22.304Z,24.78
2022-09-01T14:33:17.596Z,24.80
2022-09-01T14:35:48.147Z,24.86
2022-09-01T14:38:15.218Z,24.89
2022-09-01T14:40:44.215Z,24.96
2022-09-01T14:43:11.933Z,25.11
2022-09-01T14:45:39.470Z,25.22
2022-09-01T14:48:06.754Z,25.38
2022-09-01T14:50:33.710Z,25.56
2022-09-01T14:53:02.944Z,25.68
2022-09-01T14:55:32.000Z,25.88
2022-09-01T14:58:02.171Z,26.10
2022-09-01T15:00:30.439Z,26.34
2022-09-01T15:02:57.841Z,26.57
2022-09-01T15:05:25.280Z,26.82
2022-09-01T15:07:53.483Z,27.06
2022-09-01T15:10:26.067Z,27.26
2022-09-01T15:12:55.129Z,27.44
2022-09-01T15:15:22.507Z,27.64
2022-09-01T15:17:49.634Z,27.95
2022-09-01T15:20:16.571Z,28.18
2022-09-01T15:22:43.474Z,28.40
2022-09-01T15:25:10.475Z,28.48
2022-09-01T15:27:41.372Z,28.49
2022-09-01T15:30:09.484Z,28.30
2022-09-01T15:32:36.404Z,27.99
2022-09-01T15:35:03.373Z,27.69
2022-09-01T15:37:30.302Z,27.34
2022-09-01T15:39:57.251Z,27.17
2022-09-01T15:42:24.301Z,27.15
2022-09-01T15:44:51.242Z,27.22
2022-09-01T15:47:18.191Z,27.31
2022-09-01T15:49:45.070Z,27.46
2022-09-01T15:52:11.900Z,27.70
2022-09-01T15:54:39.564Z,27.81
2022-09-01T15:57:06.670Z,27.93
2022-09-01T15:59:35.762Z,28.19
2022-09-01T16:02:02.740Z,28.37
2022-09-01T16:04:29.695Z,28.30
2022-09-01T16:06:56.713Z,28.23
2022-09-01T16:09:23.881Z,28.22
2022-09-01T16:11:50.620Z,28.16
2022-09-01T16:14:17.480Z,28.13
2022-09-01T16:17:01.988Z,28.00
2022-09-01T16:19:34.713Z,28.02
2022-09-01T16:22:13.176Z,27.97
2022-09-01T16:24:46.485Z,27.96
2022-09-01T16:27:20.587Z,27.90
2022-09-01T16:29:55.674Z,27.88
2022-09-01T16:32:22.748Z,27.91
2022-09-01T16:34:51.996Z,27.91
2022-09-01T16:37:29.598Z,27.94
2022-09-01T16:40:21.483Z,27.90
2022-09-01T16:42:57.846Z,27.96
2022-09-01T16:45:42.276Z,27.97
2022-09-01T16:48:26.232Z,27.96
2022-09-01T16:51:02.525Z,28.00
2022-09-01T16:53:39.094Z,28.04
2022-09-01T16:56:29.946Z,28.01
2022-09-01T17:02:17.595Z,28.01
2022-09-01T17:04:53.538Z,28.05
2022-09-01T17:07:37.538Z,28.02
2022-09-01T17:10:35.912Z,27.96
2022-09-01T17:13:29.934Z,27.90
2022-09-01T17:16:09.009Z,27.89
2022-09-01T17:18:45.920Z,27.82
2022-09-01T17:21:18.230Z,27.75
2022-09-01T17:24:05.414Z,27.58
2022-09-01T17:26:32.757Z,27.49
2022-09-01T17:29:26.032Z,27.30
2022-09-01T17:32:11.526Z,27.02
2022-09-01T17:34:59.960Z,26.74
2022-09-01T17:37:29.340Z,26.43
2022-09-01T17:40:09.618Z,26.02
2022-09-01T17:43:03.992Z,25.62
2022-09-01T17:45:45.597Z,25.16
2022-09-01T17:48:20.745Z,24.78
2022-09-01T17:51:14.498Z,24.31
2022-09-01T17:53:58.292Z,23.95
2022-09-01T17:56:41.343Z,23.53
2022-09-01T17:59:10.849Z,23.20
2022-09-01T18:01:42.178Z,22.89
2022-09-01T18:04:42.250Z,22.61
2022-09-01T18:07:50.263Z,22.23
2022-09-01T18:10:40.953Z,21.96
2022-09-01T18:13:30.480Z,21.76
2022-09-01T18:16:10.418Z,21.52
2022-09-01T18:18:43.087Z,21.34
2022-09-01T18:21:11.703Z,21.16
2022-09-01T18:23:45.380Z,20.98
2022-09-01T18:26:18.973Z,20.84
2022-09-01T18:28:46.312Z,20.69
2022-09-01T18:31:34.068Z,20.54
2022-09-01T18:34:06.881Z,20.30
2022-09-01T18:37:03.342Z,20.25
2022-09-01T18:40:01.408Z,20.12
2022-09-01T18:42:48.115Z,19.99
2022-09-01T18:45:20.943Z,19.87
2022-09-01T18:48:00.059Z,19.78
2022-09-01T18:50:29.679Z,19.67
2022-09-01T18:53:31.049Z,19.56
2022-09-01T18:56:21.042Z,19.44
2022-09-01T18:58:57.321Z,19.35
2022-09-01T19:01:35.240Z,19.26
2022-09-01T19:04:30.965Z,19.07
2022-09-01T19:07:22.715Z,19.02
2022-09-01T19:10:10.416Z,18.96
2022-09-01T19:12:52.895Z,18.85
2022-09-01T19:15:33.795Z,18.77
2022-09-01T19:18:13.030Z,18.69
2022-09-01T19:20:45.859Z,18.59
2022-09-01T19:23:21.927Z,18.50
2022-09-01T19:25:51.561Z,18.40
2022-09-01T19:28:35.906Z,18.33
2022-09-01T19:31:27.497Z,18.22
2022-09-01T19:34:04.397Z,18.12
2022-09-01T19:36:56.686Z,18.03
2022-09-01T19:39:42.796Z,17.95
2022-09-01T19:42:28.332Z,17.91
2022-09-01T19:45:06.964Z,17.85
2022-09-01T19:48:03.546Z,17.81
2022-09-01T19:51:12.560Z,17.72
2022-09-01T19:53:48.415Z,17.72
2022-09-01T19:56:27.556Z,17.68
2022-09-01T19:59:19.494Z,17.63
2022-09-01T20:02:09.098Z,17.58
2022-09-01T20:04:57.028Z,17.55
2022-09-01T20:07:46.649Z,17.51
2022-09-01T20:11:02.263Z,17.46
2022-09-01T20:14:03.105Z,17.44
2022-09-01T20:16:38.135Z,17.43
2022-09-01T20:19:12.016Z,17.40
2022-09-01T20:21:44.007Z,17.38
2022-09-01T20:24:35.522Z,17.34
2022-09-01T20:27:11.387Z,17.33
2022-09-01T20:29:49.894Z,17.30
2022-09-01T20:32:24.254Z,17.29
2022-09-01T20:34:58.872Z,17.26
2022-09-01T20:37:37.203Z,17.24
2022-09-01T20:40:27.718Z,17.19
2022-09-01T20:43:18.184Z,17.15
2022-09-01T20:45:45.694Z,17.15
2022-09-01T20:48:15.278Z,17.12
2022-09-01T20:51:13.556Z,17.08
2022-09-01T20:53:51.257Z,17.04
2022-09-01T20:56:50.149Z,17.03
2022-09-01T20:59:36.777Z,16.98
2022-09-01T21:02:20.859Z,16.95
2022-09-01T21:05:06.114Z,16.92
2022-09-01T21:08:17.916Z,16.87
2022-09-01T21:10:53.412Z,16.85
2022-09-01T21:13:45.257Z,16.83
2022-09-01T21:16:36.670Z,16.78
2022-09-01T21:19:07.306Z,16.78
2022-09-01T21:21:46.741Z,16.75
2022-09-01T21:24:13.894Z,16.73
2022-09-01T21:26:43.531Z,16.71
2022-09-01T21:29:36.249Z,16.66
2022-09-01T21:32:03.986Z,16.66
2022-09-01T21:34:30.841Z,16.64
2022-09-01T21:36:57.574Z,16.64
2022-09-01T21:39:24.492Z,16.63
2022-09-01T21:41:51.309Z,16.61
2022-09-01T21:44:18.088Z,16.59
2022-09-01T21:46:45.006Z,16.58
2022-09-01T21:49:11.818Z,16.55
2022-09-01T21:51:38.666Z,16.54
2022-09-01T21:54:05.562Z,16.53
2022-09-01T21:56:32.372Z,16.51
2022-09-01T21:58:59.235Z,16.50
2022-09-01T22:01:27.119Z,16.47
2022-09-01T22:03:54.062Z,16.44
2022-09-01T22:06:20.779Z,16.43
2022-09-01T22:08:47.480Z,16.42
2022-09-01T22:11:15.639Z,16.30
2022-09-01T22:13:42.809Z,16.36
2022-09-01T22:16:09.585Z,16.36
2022-09-01T22:18:36.336Z,16.33
2022-09-01T22:21:08.573Z,16.35
2022-09-01T22:23:35.864Z,16.33
2022-09-01T22:26:03.146Z,16.31
2022-09-01T22:28:30.043Z,16.30
2022-09-01T22:30:56.891Z,16.30
2022-09-01T22:33:24.270Z,16.28
2022-09-01T22:35:53.581Z,16.29
2022-09-01T22:38:21.511Z,16.26
2022-09-01T22:40:51.907Z,16.27
2022-09-01T22:43:19.382Z,16.26
2022-09-01T22:45:48.079Z,16.26
2022-09-01T22:48:16.566Z,16.25
2022-09-01T22:50:45.175Z,16.24
2022-09-01T22:53:13.162Z,16.22
2022-09-01T22:55:40.720Z,16.12
2022-09-01T22:58:10.214Z,16.19
2022-09-01T23:00:37.916Z,16.19
2022-09-01T23:03:05.618Z,16.18
2022-09-01T23:05:32.328Z,16.16
2022-09-01T23:07:59.178Z,16.16
2022-09-01T23:10:26.116Z,16.14
2022-09-01T23:12:52.811Z,16.14
2022-09-01T23:15:19.996Z,16.12
2022-09-01T23:17:46.824Z,16.11
2022-09-01T23:20:14.849Z,16.10
2022-09-01T23:22:43.765Z,16.09
2022-09-01T23:25:13.472Z,16.07
2022-09-01T23:27:40.525Z,16.06
2022-09-01T23:30:10.176Z,16.06
2022-09-01T23:32:37.344Z,16.06
2022-09-01T23:35:04.829Z,16.04
2022-09-01T23:37:31.719Z,16.02
2022-09-01T23:39:58.643Z,16.01
2022-09-01T23:42:25.475Z,15.99
2022-09-01T23:44:52.194Z,15.99
2022-09-01T23:47:19.048Z,15.96
2022-09-01T23:49:45.861Z,15.95
2022-09-01T23:52:12.631Z,15.93
2022-09-01T23:54:39.340Z,15.92
2022-09-01T23:57:06.200Z,15.90
2022-09-01T23:59:33.005Z,15.88
